createdAt,value
2022-11-12T00:02:11.671Z,102936.59
2022-11-12T00:04:58.390Z,102929.91
2022-11-12T00:07:45.879Z,102931.50
2022-11-12T00:10:32.974Z,102933.63
2022-11-12T00:13:19.340Z,102931.88
2022-11-12T00:16:06.425Z,102935.13
2022-11-12T00:18:52.868Z,102923.47
2022-11-12T00:21:39.139Z,102922.94
2022-11-12T00:24:26.746Z,102927.50
2022-11-12T00:27:13.198Z,102916.66
2022-11-12T00:29:59.645Z,102923.63
2022-11-12T00:32:46.090Z,102919.06
2022-11-12T00:35:33.404Z,102926.03
2022-11-12T00:38:19.607Z,102925.66
2022-11-12T00:41:07.651Z,102920.00
2022-11-12T00:43:54.170Z,102921.28
2022-11-12T00:46:40.357Z,102919.72
2022-11-12T00:49:26.764Z,102931.97
2022-11-12T00:52:12.943Z,102931.72
2022-11-12T00:54:59.238Z,102924.16
2022-11-12T00:57:46.993Z,102929.56
2022-11-12T01:00:33.374Z,102923.22
2022-11-12T01:03:19.761Z,102923.50
2022-11-12T01:06:07.605Z,102917.63
2022-11-12T01:08:55.985Z,102918.34
2022-11-12T01:11:42.792Z,102917.09
2022-11-12T01:14:30.643Z,102911.94
2022-11-12T01:17:17.197Z,102908.66
2022-11-12T01:20:03.521Z,102914.47
2022-11-12T01:22:49.905Z,102907.94
2022-11-12T01:25:38.897Z,102914.25
2022-11-12T01:28:25.470Z,102915.19
2022-11-12T01:31:17.447Z,102914.66
2022-11-12T01:34:06.044Z,102918.50
2022-11-12T01:36:52.506Z,102916.59
2022-11-12T01:39:38.897Z,102920.94
2022-11-12T01:42:26.637Z,102925.88
2022-11-12T01:45:16.610Z,102918.38
2022-11-12T01:48:05.012Z,102920.94
2022-11-12T01:50:51.976Z,102929.84
2022-11-12T01:53:44.599Z,102923.63
2022-11-12T01:56:32.118Z,102923.75
2022-11-12T01:59:23.549Z,102933.78
2022-11-12T02:02:10.150Z,102927.50
2022-11-12T02:04:58.960Z,102923.16
2022-11-12T02:07:47.773Z,102932.53
2022-11-12T02:10:35.917Z,102927.50
2022-11-12T02:13:40.518Z,102936.72
2022-11-12T02:16:29.959Z,102937.25
2022-11-12T02:19:18.051Z,102926.28
2022-11-12T02:22:06.079Z,102937.13
2022-11-12T02:24:52.282Z,102930.84
2022-11-12T02:27:38.783Z,102927.34
2022-11-12T02:30:33.543Z,102926.28
2022-11-12T02:33:19.770Z,102923.22
2022-11-12T02:36:06.319Z,102934.44
2022-11-12T02:38:54.349Z,102934.19
2022-11-12T02:41:40.957Z,102937.13
2022-11-12T02:44:27.449Z,102939.16
2022-11-12T02:47:14.037Z,102943.94
2022-11-12T02:50:00.343Z,102951.03
2022-11-12T02:52:46.854Z,102953.19
2022-11-12T02:55:34.614Z,102954.81
2022-11-12T02:58:22.557Z,102959.13
2022-11-12T03:01:09.289Z,102963.34
2022-11-12T03:03:55.456Z,102971.19
2022-11-12T03:06:42.560Z,102977.19
2022-11-12T03:09:28.934Z,102973.13
2022-11-12T03:12:16.585Z,102978.88
2022-11-12T03:15:02.952Z,102965.06
2022-11-12T03:17:49.247Z,102984.53
2022-11-12T03:20:35.873Z,102985.41
2022-11-12T03:23:22.390Z,102985.78
2022-11-12T03:26:08.775Z,102976.56
2022-11-12T03:28:56.896Z,102979.88
2022-11-12T03:31:43.285Z,102983.22
2022-11-12T03:34:29.722Z,102981.69
2022-11-12T03:37:15.904Z,102989.06
2022-11-12T03:40:02.179Z,102987.91
2022-11-12T03:42:49.112Z,102983.09
2022-11-12T03:45:36.900Z,102978.97
2022-11-12T03:48:23.780Z,102977.31
2022-11-12T03:51:12.228Z,102990.16
2022-11-12T03:53:58.601Z,102982.78
2022-11-12T03:56:45.000Z,102988.41
2022-11-12T03:59:31.776Z,102984.66
2022-11-12T04:02:19.394Z,102984.75
2022-11-12T04:05:24.473Z,102980.31
2022-11-12T04:08:34.758Z,102987.91
2022-11-12T04:11:21.372Z,102988.25
2022-11-12T04:14:07.862Z,102993.91
2022-11-12T04:17:11.807Z,102992.72
2022-11-12T04:20:16.937Z,102989.59
2022-11-12T04:23:03.431Z,102994.84
2022-11-12T04:26:07.528Z,102998.00
2022-11-12T04:29:11.323Z,102998.44
2022-11-12T04:31:57.652Z,103000.19
2022-11-12T04:34:44.181Z,102998.53
2022-11-12T04:37:44.473Z,102996.13
2022-11-12T04:40:48.805Z,103004.16
2022-11-12T04:43:52.010Z,103000.53
2022-11-12T04:46:38.587Z,103007.28
2022-11-12T04:49:25.008Z,103006.94
2022-11-12T04:52:11.449Z,103003.16
2022-11-12T04:54:59.735Z,103011.81
2022-11-12T04:57:45.995Z,103011.81
2022-11-12T05:00:32.295Z,103014.88
2022-11-12T05:03:18.895Z,103014.25
2022-11-12T05:06:27.962Z,103012.38
2022-11-12T05:09:14.527Z,103015.00
2022-11-12T05:12:02.354Z,103021.56
2022-11-12T05:14:48.947Z,103017.19
2022-11-12T05:17:35.345Z,103013.06
2022-11-12T05:20:21.805Z,103025.78
2022-11-12T05:23:08.113Z,103021.56
2022-11-12T05:25:54.831Z,103023.41
2022-11-12T05:28:42.558Z,103035.41
2022-11-12T05:31:29.382Z,103034.72
2022-11-12T05:34:21.571Z,103030.06
2022-11-12T05:37:10.659Z,103039.56
2022-11-12T05:39:57.179Z,103030.84
2022-11-12T05:42:43.490Z,103032.81
2022-11-12T05:45:31.153Z,103029.91
2022-11-12T05:48:21.608Z,103026.09
2022-11-12T05:51:14.098Z,103038.84
2022-11-12T05:54:02.266Z,103041.25
2022-11-12T05:56:49.176Z,103040.53
2022-11-12T05:59:36.357Z,103053.22
2022-11-12T06:02:24.365Z,103043.13
2022-11-12T06:05:11.171Z,103032.88
2022-11-12T06:07:58.002Z,103044.50
2022-11-12T06:10:50.195Z,103046.66
2022-11-12T06:13:37.368Z,103032.69
2022-11-12T06:16:23.839Z,103039.88
2022-11-12T06:19:12.022Z,103039.78
2022-11-12T06:21:58.285Z,103053.13
2022-11-12T06:24:45.048Z,103046.34
2022-11-12T06:27:31.191Z,103048.16
2022-11-12T06:30:21.638Z,103037.19
2022-11-12T06:33:10.752Z,103045.59
2022-11-12T06:36:03.931Z,103055.03
2022-11-12T06:38:50.583Z,103054.66
2022-11-12T06:41:36.749Z,103066.13
2022-11-12T06:44:22.976Z,103057.00
2022-11-12T06:47:09.888Z,103072.03
2022-11-12T06:49:56.422Z,103069.53
2022-11-12T06:52:44.126Z,103079.50
2022-11-12T06:55:30.391Z,103090.13
2022-11-12T06:58:16.601Z,103084.41
2022-11-12T07:01:12.365Z,103089.16
2022-11-12T07:03:59.041Z,103086.53
2022-11-12T07:06:45.389Z,103097.06
2022-11-12T07:09:33.356Z,103087.50
2022-11-12T07:12:19.775Z,103092.25
2022-11-12T07:15:07.338Z,103086.28
2022-11-12T07:17:53.574Z,103085.38
2022-11-12T07:20:39.819Z,103093.06
2022-11-12T07:23:26.238Z,103093.75
2022-11-12T07:26:17.931Z,103104.81
2022-11-12T07:29:04.511Z,103094.75
2022-11-12T07:31:50.632Z,103091.06
2022-11-12T07:34:36.825Z,103105.88
2022-11-12T07:37:22.976Z,103110.28
2022-11-12T07:40:09.960Z,103109.84
2022-11-12T07:43:00.080Z,103099.03
2022-11-12T07:45:46.776Z,103104.69
2022-11-12T07:48:33.489Z,103118.72
2022-11-12T07:51:21.742Z,103098.50
2022-11-12T07:54:08.397Z,103108.88
2022-11-12T07:56:54.647Z,103112.06
2022-11-12T07:59:46.162Z,103103.81
2022-11-12T08:02:32.891Z,103112.59
2022-11-12T08:05:21.486Z,103094.47
2022-11-12T08:08:08.108Z,103106.13
2022-11-12T08:10:56.573Z,103115.19
2022-11-12T08:13:43.203Z,103110.22
2022-11-12T08:16:31.007Z,103109.06
2022-11-12T08:19:17.532Z,103113.72
2022-11-12T08:22:03.846Z,103125.06
2022-11-12T08:24:50.125Z,103097.94
2022-11-12T08:27:36.767Z,103097.25
2022-11-12T08:30:23.378Z,103104.75
2022-11-12T08:33:11.204Z,103103.66
2022-11-12T08:35:57.713Z,103099.00
2022-11-12T08:38:44.469Z,103099.53
2022-11-12T08:41:30.764Z,103096.38
2022-11-12T08:44:17.039Z,103104.34
2022-11-12T08:47:03.328Z,103103.69
2022-11-12T08:49:50.947Z,103106.22
2022-11-12T08:52:37.155Z,103097.78
2022-11-12T08:55:23.438Z,103104.88
2022-11-12T08:58:10.932Z,103101.59
2022-11-12T09:00:58.677Z,103100.66
2022-11-12T09:03:45.252Z,103108.03
2022-11-12T09:06:32.993Z,103109.34
2022-11-12T09:09:19.590Z,103093.38
2022-11-12T09:12:13.689Z,103091.31
2022-11-12T09:15:35.836Z,103101.31
2022-11-12T09:18:13.530Z,103107.72
2022-11-12T09:21:04.521Z,103102.72
2022-11-12T09:23:52.037Z,103107.84
2022-11-12T09:26:38.279Z,103101.47
2022-11-12T09:29:24.786Z,103100.22
2022-11-12T09:32:11.185Z,103102.72
2022-11-12T09:34:57.839Z,103106.03
2022-11-12T09:37:44.579Z,103087.34
2022-11-12T09:40:45.115Z,103097.75
2022-11-12T09:43:35.164Z,103093.47
2022-11-12T09:46:29.744Z,103091.19
2022-11-12T09:49:20.298Z,103091.47
2022-11-12T09:52:15.554Z,103091.88
2022-11-12T09:55:14.469Z,103086.59
2022-11-12T09:58:02.517Z,103083.91
2022-11-12T10:00:55.908Z,103077.25
2022-11-12T10:03:54.008Z,103087.31
2022-11-12T10:06:50.324Z,103094.47
2022-11-12T10:09:48.141Z,103080.31
2022-11-12T10:12:50.035Z,103071.09
2022-11-12T10:16:09.197Z,103091.03
2022-11-12T10:19:21.444Z,103078.00
2022-11-12T10:22:21.173Z,103075.50
2022-11-12T10:25:15.951Z,103078.28
2022-11-12T10:28:09.726Z,103089.44
2022-11-12T10:31:03.382Z,103085.34
2022-11-12T10:33:49.891Z,103073.09
2022-11-12T10:36:39.576Z,103107.38
2022-11-12T10:39:37.163Z,103094.53
2022-11-12T10:42:24.654Z,103065.78
2022-11-12T10:45:21.851Z,103081.44
2022-11-12T10:48:26.939Z,103089.25
2022-11-12T10:51:26.861Z,103070.75
2022-11-12T10:54:23.241Z,103074.13
2022-11-12T10:57:21.948Z,103084.66
2022-11-12T11:00:20.562Z,103077.19
2022-11-12T11:03:16.698Z,103076.81
2022-11-12T11:06:06.519Z,103092.44
2022-11-12T11:08:55.026Z,103078.84
2022-11-12T11:11:50.507Z,103075.63
2022-11-12T11:14:38.324Z,103075.84
2022-11-12T11:17:24.687Z,103052.16
2022-11-12T11:20:19.927Z,103061.59
2022-11-12T11:23:17.981Z,103065.91
2022-11-12T11:26:17.690Z,103059.59
2022-11-12T11:29:21.020Z,103058.59
2022-11-12T11:32:18.750Z,103056.94
2022-11-12T11:35:19.245Z,103049.91
2022-11-12T11:38:32.803Z,103052.09
2022-11-12T11:41:41.804Z,103060.34
2022-11-12T11:44:38.662Z,103050.78
2022-11-12T11:47:59.403Z,103041.81
2022-11-12T11:50:53.455Z,103034.34
2022-11-12T11:53:53.023Z,103031.13
2022-11-12T11:56:43.616Z,103045.28
2022-11-12T11:59:42.794Z,103049.50
2022-11-12T12:02:50.460Z,103053.69
2022-11-12T12:05:44.148Z,103045.31
2022-11-12T12:08:37.240Z,103050.00
2022-11-12T12:11:31.480Z,103043.38
2022-11-12T12:14:31.562Z,103030.56
2022-11-12T12:17:32.374Z,103046.56
2022-11-12T12:20:23.455Z,103037.97
2022-11-12T12:23:20.822Z,103037.25
2022-11-12T12:26:14.195Z,103031.78
2022-11-12T12:29:06.378Z,103033.22
2022-11-12T12:31:59.603Z,103016.53
2022-11-12T12:34:48.899Z,103024.34
2022-11-12T12:37:42.138Z,103039.63
2022-11-12T12:40:35.551Z,103025.09
2022-11-12T12:43:28.869Z,103019.78
2022-11-12T12:46:21.555Z,103017.72
2022-11-12T12:49:12.133Z,103021.06
2022-11-12T12:51:59.712Z,103014.63
2022-11-12T12:54:57.139Z,103012.03
2022-11-12T12:57:43.928Z,103009.22
2022-11-12T13:00:35.790Z,102999.06
2022-11-12T13:03:59.551Z,102997.78
2022-11-12T13:06:54.853Z,102987.28
2022-11-12T13:09:41.577Z,102992.06
2022-11-12T13:13:00.873Z,102990.03
2022-11-12T13:15:48.750Z,102988.72
2022-11-12T13:19:04.042Z,102982.44
2022-11-12T13:22:28.717Z,102985.25
2022-11-12T13:25:27.883Z,102993.63
2022-11-12T13:28:15.297Z,102997.00
2022-11-12T13:31:04.285Z,102998.06
2022-11-12T13:33:50.786Z,102994.69
2022-11-12T13:36:38.918Z,102995.25
2022-11-12T13:39:26.279Z,103009.13
2022-11-12T13:42:33.115Z,103009.13
2022-11-12T13:45:21.612Z,103000.38
2022-11-12T13:48:09.747Z,102998.25
2022-11-12T13:50:59.849Z,103000.88
2022-11-12T13:53:48.574Z,103009.31
2022-11-12T13:56:37.417Z,103006.47
2022-11-12T13:59:25.600Z,103003.31
2022-11-12T14:02:22.151Z,103004.22
2022-11-12T14:05:15.697Z,103002.03
2022-11-12T14:08:14.911Z,103004.72
2022-11-12T14:11:18.235Z,103000.88
2022-11-12T14:14:13.225Z,103002.31
2022-11-12T14:17:12.635Z,102999.53
2022-11-12T14:20:20.844Z,103001.16
2022-11-12T14:23:13.628Z,102996.44
2022-11-12T14:26:00.287Z,102999.31
2022-11-12T14:28:56.769Z,102995.47
2022-11-12T14:31:43.427Z,102993.72
2022-11-12T14:34:31.560Z,102996.31
2022-11-12T14:37:38.463Z,102987.44
2022-11-12T14:40:31.573Z,102988.44
2022-11-12T14:43:30.587Z,102987.31
2022-11-12T14:46:25.622Z,102990.41
2022-11-12T14:49:19.251Z,102989.84
2022-11-12T14:52:10.761Z,102987.16
2022-11-12T14:54:59.868Z,102985.63
2022-11-12T14:57:46.459Z,102980.16
2022-11-12T15:00:42.347Z,102988.97
2022-11-12T15:03:34.191Z,102980.31
2022-11-12T15:06:29.099Z,102982.19
2022-11-12T15:09:21.667Z,102977.34
2022-11-12T15:12:12.631Z,102989.63
2022-11-12T15:15:10.305Z,102983.81
2022-11-12T15:18:01.695Z,102992.00
2022-11-12T15:21:07.837Z,102989.47
2022-11-12T15:24:01.391Z,102983.13
2022-11-12T15:26:50.555Z,102985.13
2022-11-12T15:29:37.181Z,102989.19
2022-11-12T15:32:34.632Z,102990.34
2022-11-12T15:35:34.855Z,102995.19
2022-11-12T15:38:26.938Z,102994.75
2022-11-12T15:41:24.939Z,102995.72
2022-11-12T15:44:12.178Z,102998.31
2022-11-12T15:46:59.854Z,102989.88
2022-11-12T15:49:51.006Z,102988.94
2022-11-12T15:52:37.356Z,102993.16
2022-11-12T15:55:25.733Z,103000.44
2022-11-12T15:58:17.300Z,103001.47
2022-11-12T16:01:05.076Z,103008.38
2022-11-12T16:03:51.459Z,103008.63
2022-11-12T16:06:37.856Z,103007.13
2022-11-12T16:09:24.133Z,103016.09
2022-11-12T16:12:12.916Z,103005.16
2022-11-12T16:15:00.197Z,103002.59
2022-11-12T16:17:47.298Z,103007.47
2022-11-12T16:20:35.501Z,103007.47
2022-11-12T16:23:21.919Z,103013.56
2022-11-12T16:26:10.121Z,103013.25
2022-11-12T16:28:58.449Z,103011.84
2022-11-12T16:31:45.301Z,103015.06
2022-11-12T16:34:31.840Z,103013.38
2022-11-12T16:37:18.145Z,103020.78
2022-11-12T16:40:04.431Z,103024.63
2022-11-12T16:42:51.039Z,103025.88
2022-11-12T16:45:41.283Z,103010.88
2022-11-12T16:48:27.803Z,103016.50
2022-11-12T16:51:18.848Z,103014.34
2022-11-12T16:54:05.553Z,103019.13
2022-11-12T16:56:52.174Z,103014.53
2022-11-12T16:59:38.619Z,103017.63
2022-11-12T17:02:26.362Z,103013.91
2022-11-12T17:05:16.800Z,103018.00
2022-11-12T17:08:03.396Z,103010.34
2022-11-12T17:10:49.841Z,103023.16
2022-11-12T17:13:37.343Z,103022.81
2022-11-12T17:16:23.909Z,103013.75
2022-11-12T17:19:12.180Z,103021.25
2022-11-12T17:21:58.566Z,103016.69
2022-11-12T17:24:44.777Z,103003.41
2022-11-12T17:27:31.019Z,103009.75
2022-11-12T17:30:17.729Z,103008.44
2022-11-12T17:33:03.987Z,103005.97
2022-11-12T17:35:51.817Z,103008.28
2022-11-12T17:38:38.241Z,103001.91
2022-11-12T17:41:24.823Z,103012.34
2022-11-12T17:44:15.956Z,103015.75
2022-11-12T17:47:03.030Z,103016.91
2022-11-12T17:49:49.297Z,103022.50
2022-11-12T17:52:36.883Z,103010.34
2022-11-12T17:55:23.244Z,103017.72
2022-11-12T17:58:09.872Z,103010.91
2022-11-12T18:00:56.853Z,103017.28
2022-11-12T18:03:44.951Z,103014.53
2022-11-12T18:06:32.932Z,103012.94
2022-11-12T18:09:20.534Z,103015.97
2022-11-12T18:12:07.104Z,103015.03
2022-11-12T18:14:53.619Z,103013.22
2022-11-12T18:17:40.126Z,103014.94
2022-11-12T18:20:26.608Z,103020.41
2022-11-12T18:23:14.262Z,103022.06
2022-11-12T18:26:03.046Z,103017.25
2022-11-12T18:28:52.723Z,103018.44
2022-11-12T18:31:40.444Z,103006.34
2022-11-12T18:34:26.855Z,103018.00
2022-11-12T18:37:13.462Z,103013.38
2022-11-12T18:39:59.698Z,103007.84
2022-11-12T18:42:47.581Z,103010.03
2022-11-12T18:45:34.171Z,103005.91
2022-11-12T18:48:20.453Z,103011.03
2022-11-12T18:51:08.951Z,103017.25
2022-11-12T18:53:55.421Z,103009.88
2022-11-12T18:56:42.628Z,103019.84
2022-11-12T18:59:32.500Z,103014.63
2022-11-12T19:02:19.279Z,103015.69
2022-11-12T19:05:06.081Z,103015.50
2022-11-12T19:07:52.597Z,103012.75
2022-11-12T19:10:39.688Z,103013.03
2022-11-12T19:13:26.742Z,103022.91
2022-11-12T19:16:17.227Z,103016.00
2022-11-12T19:19:06.739Z,103020.16
2022-11-12T19:21:53.469Z,103022.72
2022-11-12T19:24:39.711Z,103018.97
2022-11-12T19:27:25.852Z,103020.53
2022-11-12T19:30:13.095Z,103023.03
2022-11-12T19:33:00.798Z,103024.91
2022-11-12T19:35:47.103Z,103022.47
2022-11-12T19:38:33.902Z,103032.50
2022-11-12T19:41:20.413Z,103039.09
2022-11-12T19:44:06.810Z,103028.66
2022-11-12T19:46:53.093Z,103023.69
2022-11-12T19:49:40.644Z,103021.72
2022-11-12T19:52:26.837Z,103023.97
2022-11-12T19:55:13.565Z,103023.75
2022-11-12T19:58:01.113Z,103022.03
2022-11-12T20:00:47.390Z,103017.97
2022-11-12T20:03:34.653Z,103021.06
2022-11-12T20:06:25.488Z,103035.19
2022-11-12T20:09:12.061Z,103025.78
2022-11-12T20:11:58.349Z,103027.22
2022-11-12T20:14:44.647Z,103024.78
2022-11-12T20:17:33.032Z,103016.09
2022-11-12T20:20:19.302Z,103028.84
2022-11-12T20:23:07.153Z,103027.09
2022-11-12T20:25:54.179Z,103024.28
2022-11-12T20:28:42.230Z,103025.59
2022-11-12T20:31:28.518Z,103022.97
2022-11-12T20:34:14.973Z,103029.38
2022-11-12T20:37:01.419Z,103025.88
2022-11-12T20:39:49.309Z,103024.28
2022-11-12T20:42:35.716Z,103026.72
2022-11-12T20:45:21.826Z,103027.94
2022-11-12T20:48:08.137Z,103032.00
2022-11-12T20:51:22.587Z,103021.03
2022-11-12T20:54:10.114Z,103025.13
2022-11-12T20:56:59.748Z,103019.81
2022-11-12T20:59:46.496Z,103020.19
2022-11-12T21:02:33.925Z,103016.88
2022-11-12T21:05:20.198Z,103017.69
2022-11-12T21:08:06.750Z,103021.03
2022-11-12T21:10:53.486Z,103012.44
2022-11-12T21:13:42.145Z,103006.25
2022-11-12T21:16:28.561Z,103017.28
2022-11-12T21:19:14.826Z,103013.13
2022-11-12T21:22:01.047Z,103013.84
2022-11-12T21:24:47.373Z,103006.56
2022-11-12T21:27:33.728Z,103001.34
2022-11-12T21:30:21.613Z,102997.13
2022-11-12T21:33:08.258Z,103001.00
2022-11-12T21:35:54.644Z,103012.88
2022-11-12T21:38:41.470Z,103004.31
2022-11-12T21:41:28.979Z,103009.38
2022-11-12T21:44:15.548Z,103006.66
2022-11-12T21:47:03.199Z,102995.88
2022-11-12T21:49:49.458Z,103004.44
2022-11-12T21:52:35.874Z,102996.56
2022-11-12T21:55:22.128Z,102994.00
2022-11-12T21:58:08.724Z,102993.66
2022-11-12T22:00:54.964Z,102995.66
2022-11-12T22:03:42.650Z,102990.56
2022-11-12T22:06:30.665Z,102988.88
2022-11-12T22:09:17.120Z,102989.41
2022-11-12T22:12:03.374Z,102990.34
2022-11-12T22:14:49.594Z,102985.34
2022-11-12T22:17:35.903Z,102982.34
2022-11-12T22:20:23.518Z,102978.44
2022-11-12T22:23:09.992Z,102977.31
2022-11-12T22:25:58.002Z,102983.13
2022-11-12T22:28:44.802Z,102978.94
2022-11-12T22:31:32.856Z,102967.25
2022-11-12T22:34:19.024Z,102967.47
2022-11-12T22:37:06.660Z,102971.31
2022-11-12T22:39:53.154Z,102961.38
2022-11-12T22:42:39.556Z,102964.22
2022-11-12T22:45:25.851Z,102954.00
2022-11-12T22:48:12.143Z,102946.66
2022-11-12T22:51:00.203Z,102954.00
2022-11-12T22:53:48.403Z,102954.00
2022-11-12T22:56:34.842Z,102954.31
2022-11-12T22:59:21.422Z,102951.22
2022-11-12T23:02:07.973Z,102951.34
2022-11-12T23:04:54.521Z,102956.97
2022-11-12T23:07:40.819Z,102955.97
2022-11-12T23:10:28.675Z,102945.19
2022-11-12T23:13:15.016Z,102945.31
2022-11-12T23:16:01.438Z,102948.50
2022-11-12T23:18:48.087Z,102937.25
2022-11-12T23:21:34.296Z,102932.91
2022-11-12T23:24:20.689Z,102943.28
2022-11-12T23:27:08.475Z,102934.72
2022-11-12T23:29:54.887Z,102939.66
2022-11-12T23:32:41.200Z,102937.84
2022-11-12T23:35:27.595Z,102941.13
2022-11-12T23:38:13.930Z,102939.59
2022-11-12T23:41:00.562Z,102937.72
2022-11-12T23:43:48.327Z,102937.41
2022-11-12T23:46:34.535Z,102933.50
2022-11-12T23:49:20.891Z,102927.91
2022-11-12T23:52:07.261Z,102925.63
2022-11-12T23:54:53.486Z,102919.06
2022-11-12T23:57:39.782Z,102921.91
